Time;durP1;ratioP1;P1;durP2;ratioP2;P2;SDS_P1;SDS_P2;PMS_P1;PMS_P2;Temp;Humidity;BMP_temperature;BMP_pressure;BME280_temperature;BME280_humidity;BME280_pressure;Samples;Min_cycle;Max_cycle;Signal;HPM_P1;HPM_P2
2024/02/23 00:01:00;;;;;;;0.40;0.40;;;;;;;5.70;100.00;96864.31;5039731;28;20037;-58
2024/02/23 00:03:28;;;;;;;0.40;0.40;;;;;;;5.79;100.00;96870.69;5034875;28;20586;-58
2024/02/23 00:05:55;;;;;;;0.40;0.40;;;;;;;5.63;100.00;96863.78;5032875;28;20044;-58
2024/02/23 00:08:21;;;;;;;0.50;0.50;;;;;;;5.64;100.00;96878.66;5033556;28;20575;-58
2024/02/23 00:10:48;;;;;;;0.40;0.40;;;;;;;5.68;99.36;96897.53;5033504;28;20045;-57
2024/02/23 00:13:16;;;;;;;0.40;0.40;;;;;;;5.53;99.74;96912.41;5035834;28;20068;-60
2024/02/23 00:15:43;;;;;;;0.50;0.50;;;;;;;5.63;96.91;96917.72;5034046;28;20055;-58
2024/02/23 00:18:12;;;;;;;0.32;0.32;;;;;;;5.56;93.12;96917.19;5034376;28;20033;-58
2024/02/23 00:20:41;;;;;;;0.40;0.40;;;;;;;5.53;93.11;96930.22;5034389;28;20044;-58
2024/02/23 00:23:08;;;;;;;0.30;0.30;;;;;;;5.45;95.21;96930.75;5032725;28;20060;-58
2024/02/23 00:25:35;;;;;;;0.40;0.40;;;;;;;5.35;96.71;96921.72;5031156;28;20118;-58
2024/02/23 00:28:02;;;;;;;0.50;0.50;;;;;;;5.28;94.31;96931.81;5030500;28;20051;-58
2024/02/23 00:30:30;;;;;;;0.40;0.40;;;;;;;5.29;94.73;96933.41;5026894;28;20052;-59
2024/02/23 00:32:57;;;;;;;0.43;0.43;;;;;;;5.14;97.95;96954.63;5030902;28;20145;-58
2024/02/23 00:35:24;;;;;;;0.40;0.40;;;;;;;5.04;99.60;96966.03;5032010;28;20128;-59
2024/02/23 00:37:51;;;;;;;0.50;0.50;;;;;;;5.04;99.09;96973.19;5027555;28;20392;-59
2024/02/23 00:40:18;;;;;;;0.43;0.43;;;;;;;4.86;100.00;96977.91;5027738;28;20140;-58
2024/02/23 00:42:46;;;;;;;0.40;0.40;;;;;;;4.89;100.00;96977.41;5036321;28;20049;-59
2024/02/23 00:45:13;;;;;;;0.50;0.50;;;;;;;4.84;100.00;96977.38;5037678;28;20053;-58
2024/02/23 00:47:41;;;;;;;0.50;0.50;;;;;;;4.77;100.00;97000.72;5032926;28;20503;-59
2024/02/23 00:50:10;;;;;;;0.55;0.55;;;;;;;4.80;100.00;97018.78;5035502;28;20048;-59
2024/02/23 00:52:37;;;;;;;0.30;0.30;;;;;;;4.82;100.00;97013.19;5032437;28;20469;-59
2024/02/23 00:55:05;;;;;;;0.40;0.40;;;;;;;4.91;100.00;97033.66;5030921;28;20045;-58
2024/02/23 00:57:32;;;;;;;0.30;0.30;;;;;;;4.85;100.00;97045.31;5030587;28;20156;-58
2024/02/23 00:59:59;;;;;;;0.50;0.50;;;;;;;4.71;100.00;97038.88;5028704;28;20069;-59
2024/02/23 01:02:26;;;;;;;0.40;0.40;;;;;;;4.66;100.00;97050.25;5030685;28;20127;-59
2024/02/23 01:04:56;;;;;;;0.40;0.40;;;;;;;4.58;100.00;97071.19;5034242;28;20052;-58
2024/02/23 01:07:23;;;;;;;0.50;0.50;;;;;;;4.37;100.00;97068.41;5029636;28;20396;-59
2024/02/23 01:09:50;;;;;;;0.43;0.43;;;;;;;4.41;100.00;97072.13;5017942;28;20049;-58
2024/02/23 01:12:17;;;;;;;0.40;0.40;;;;;;;4.14;100.00;97074.06;5034617;28;20058;-59
2024/02/23 01:14:44;;;;;;;0.60;0.60;;;;;;;4.20;100.00;97070.41;5031216;28;20141;-59
2024/02/23 01:17:11;;;;;;;0.47;0.47;;;;;;;4.07;100.00;97071.66;5032269;28;20045;-58
2024/02/23 01:19:39;;;;;;;0.50;0.50;;;;;;;3.99;100.00;97086.13;5034724;28;20145;-59
2024/02/23 01:22:07;;;;;;;0.60;0.60;;;;;;;3.90;100.00;97077.06;5030601;28;20115;-59
2024/02/23 01:24:34;;;;;;;0.55;0.55;;;;;;;3.90;100.00;97087.66;5027207;28;20177;-58
2024/02/23 01:27:01;;;;;;;0.40;0.40;;;;;;;3.94;100.00;97091.38;5029394;28;20034;-59
2024/02/23 01:29:28;;;;;;;0.40;0.40;;;;;;;3.98;100.00;97097.78;5031334;28;20042;-59
2024/02/23 01:31:55;;;;;;;0.50;0.50;;;;;;;3.95;100.00;97100.97;5024935;28;20448;-58
2024/02/23 01:34:22;;;;;;;0.50;0.50;;;;;;;3.89;100.00;97096.66;5035707;28;20131;-59
2024/02/23 01:36:49;;;;;;;0.50;0.50;;;;;;;4.02;100.00;97096.25;5033865;28;20053;-58
2024/02/23 01:39:17;;;;;;;0.40;0.40;;;;;;;3.95;100.00;97090.34;5025209;28;20087;-58
2024/02/23 01:41:44;;;;;;;0.40;0.40;;;;;;;3.76;100.00;97092.56;5030427;28;20053;-59
2024/02/23 01:44:12;;;;;;;0.38;0.38;;;;;;;3.79;100.00;97091.25;5033393;28;20045;-58
2024/02/23 01:46:39;;;;;;;0.50;0.50;;;;;;;3.74;100.00;97086.69;5029242;28;20053;-59
2024/02/23 01:49:09;;;;;;;0.50;0.50;;;;;;;3.81;100.00;97092.59;5033538;28;20507;-59
2024/02/23 01:51:36;;;;;;;0.50;0.50;;;;;;;3.91;100.00;97089.25;5031926;28;20543;-59
2024/02/23 01:54:03;;;;;;;0.50;0.50;;;;;;;4.00;100.00;97089.59;5031762;28;20138;-59
2024/02/23 01:56:32;;;;;;;0.50;0.50;;;;;;;4.09;100.00;97088.91;5039916;28;20721;-58
2024/02/23 01:58:59;;;;;;;0.40;0.40;;;;;;;4.13;100.00;97086.53;5031413;28;20056;-58
2024/02/23 02:01:26;;;;;;;0.50;0.50;;;;;;;4.15;100.00;97092.38;5030550;28;20385;-58
2024/02/23 02:03:54;;;;;;;0.50;0.50;;;;;;;4.14;100.00;97097.91;5031615;28;20046;-59
2024/02/23 02:06:21;;;;;;;0.50;0.50;;;;;;;4.13;100.00;97099.78;5043940;28;20474;-58
2024/02/23 02:08:48;;;;;;;0.40;0.40;;;;;;;4.11;100.00;97102.66;5032059;28;20166;-58
2024/02/23 02:11:16;;;;;;;0.50;0.50;;;;;;;4.21;100.00;97093.22;5034334;28;20131;-59
2024/02/23 02:13:44;;;;;;;0.50;0.50;;;;;;;4.25;100.00;97099.63;5029563;28;20128;-58
2024/02/23 02:16:11;;;;;;;0.40;0.40;;;;;;;4.21;100.00;97093.22;5034502;28;20072;-58
2024/02/23 02:18:38;;;;;;;0.38;0.38;;;;;;;4.17;100.00;97098.22;5030434;28;20578;-59
2024/02/23 02:21:05;;;;;;;0.50;0.50;;;;;;;4.24;100.00;97098.00;5028275;28;20125;-58
2024/02/23 02:23:32;;;;;;;0.52;0.52;;;;;;;4.04;100.00;97107.41;5027979;28;20051;-58
2024/02/23 02:25:59;;;;;;;0.50;0.50;;;;;;;4.01;100.00;97099.94;5032411;28;20049;-58
2024/02/23 02:28:26;;;;;;;0.50;0.50;;;;;;;3.93;100.00;97108.34;5032141;28;20132;-58
2024/02/23 02:30:55;;;;;;;0.50;0.50;;;;;;;3.88;100.00;97109.09;5033432;28;20785;-58
2024/02/23 02:33:22;;;;;;;0.50;0.50;;;;;;;3.91;100.00;97110.44;5034844;28;20807;-58
2024/02/23 02:35:49;;;;;;;0.60;0.60;;;;;;;3.78;100.00;97105.56;5030420;28;20048;-58
2024/02/23 02:38:16;;;;;;;0.50;0.50;;;;;;;3.93;100.00;97108.34;5036154;28;20049;-58
2024/02/23 02:40:43;;;;;;;0.45;0.45;;;;;;;3.81;100.00;97107.72;5037946;28;20081;-58
2024/02/23 02:43:10;;;;;;;0.50;0.50;;;;;;;3.65;100.00;97102.25;5029805;28;20423;-58
2024/02/23 02:45:38;;;;;;;0.50;0.50;;;;;;;3.61;100.00;97106.44;5037870;28;20041;-58
2024/02/23 02:48:07;;;;;;;0.50;0.50;;;;;;;3.67;100.00;97109.97;5032058;28;20131;-58
2024/02/23 02:50:36;;;;;;;0.50;0.50;;;;;;;3.63;100.00;97114.16;5037732;28;20286;-58
2024/02/23 02:53:03;;;;;;;0.52;0.52;;;;;;;3.52;100.00;97112.44;5040785;28;20473;-58
2024/02/23 02:55:30;;;;;;;0.50;0.50;;;;;;;3.40;100.00;97120.53;5037672;28;20051;-58
2024/02/23 02:57:57;;;;;;;0.50;0.50;;;;;;;3.34;100.00;97126.81;5033716;28;20056;-58
2024/02/23 03:00:24;;;;;;;0.50;0.50;;;;;;;3.41;100.00;97130.06;5032288;28;20072;-58
2024/02/23 03:02:51;;;;;;;0.50;0.50;;;;;;;3.42;100.00;97134.31;5033490;28;20061;-58
2024/02/23 03:05:20;;;;;;;0.70;0.70;;;;;;;3.53;100.00;97133.38;5033381;28;20139;-59
2024/02/23 03:07:47;;;;;;;0.63;0.63;;;;;;;3.45;100.00;97131.19;5031811;28;20525;-59
2024/02/23 03:10:14;;;;;;;0.50;0.50;;;;;;;3.49;100.00;97139.41;5035466;28;20285;-58
2024/02/23 03:12:41;;;;;;;0.60;0.60;;;;;;;3.44;100.00;97132.22;5036777;28;20060;-59
2024/02/23 03:15:09;;;;;;;0.52;0.52;;;;;;;3.33;100.00;97131.31;5031348;28;20483;-58
2024/02/23 03:17:37;;;;;;;0.50;0.50;;;;;;;3.30;100.00;97133.66;5030865;28;20044;-59
2024/02/23 03:20:08;;;;;;;0.40;0.40;;;;;;;3.31;100.00;97138.69;5030977;28;20099;-59
2024/02/23 03:22:36;;;;;;;0.50;0.50;;;;;;;3.11;100.00;97133.16;5029698;28;20053;-59
2024/02/23 03:25:08;;;;;;;0.50;0.50;;;;;;;3.10;100.00;97129.72;5029488;28;20087;-58
2024/02/23 03:27:35;;;;;;;0.45;0.45;;;;;;;3.16;100.00;97126.06;5037801;28;20060;-58
2024/02/23 03:30:03;;;;;;;0.60;0.60;;;;;;;3.31;100.00;97129.94;5041728;28;20132;-58
2024/02/23 03:32:35;;;;;;;0.68;0.68;;;;;;;3.37;100.00;97137.72;5029306;28;20045;-58
2024/02/23 03:35:03;;;;;;;0.60;0.60;;;;;;;3.53;100.00;97151.13;5029013;28;20135;-58
2024/02/23 03:37:31;;;;;;;0.60;0.60;;;;;;;3.68;100.00;97146.78;5030691;28;20045;-58
2024/02/23 03:40:00;;;;;;;0.50;0.50;;;;;;;3.73;100.00;97146.06;5028112;28;20495;-59
2024/02/23 03:42:27;;;;;;;0.50;0.50;;;;;;;3.68;100.00;97146.00;5034562;28;20044;-58
2024/02/23 03:44:55;;;;;;;0.40;0.40;;;;;;;3.76;100.00;97144.75;5031333;28;20394;-58
2024/02/23 03:47:22;;;;;;;0.50;0.50;;;;;;;3.63;100.00;97152.03;5032104;28;20045;-59
2024/02/23 03:49:49;;;;;;;0.50;0.50;;;;;;;3.64;100.00;97145.72;5028764;28;20049;-58
2024/02/23 03:52:16;;;;;;;0.55;0.55;;;;;;;3.57;100.00;97147.75;5035188;28;20045;-59
2024/02/23 03:54:43;;;;;;;0.60;0.60;;;;;;;3.53;100.00;97156.44;5037142;28;20045;-59
2024/02/23 03:57:11;;;;;;;0.40;0.40;;;;;;;3.52;100.00;97153.00;5036156;28;20140;-59
2024/02/23 03:59:38;;;;;;;0.60;0.60;;;;;;;3.47;100.00;97145.00;5034372;28;20072;-59
2024/02/23 04:02:05;;;;;;;0.50;0.50;;;;;;;3.40;100.00;97147.03;5036213;28;20479;-59
2024/02/23 04:04:32;;;;;;;0.50;0.50;;;;;;;3.47;100.00;97142.34;5030218;28;20044;-58
2024/02/23 04:07:00;;;;;;;0.50;0.50;;;;;;;3.43;100.00;97135.91;5036032;28;20052;-58
2024/02/23 04:09:27;;;;;;;0.50;0.50;;;;;;;3.31;100.00;97143.19;5038961;28;20049;-59
2024/02/23 04:11:54;;;;;;;0.60;0.60;;;;;;;3.31;100.00;97140.53;5024953;28;20220;-59
2024/02/23 04:14:23;;;;;;;0.52;0.52;;;;;;;3.32;100.00;97136.84;5029182;28;20217;-59
2024/02/23 04:16:50;;;;;;;0.52;0.52;;;;;;;3.11;100.00;97133.94;5035361;28;20495;-59
2024/02/23 04:19:17;;;;;;;0.40;0.40;;;;;;;3.11;100.00;97133.94;5031848;28;20077;-58
2024/02/23 04:21:44;;;;;;;0.52;0.52;;;;;;;3.15;100.00;97128.97;5030808;28;20685;-59
2024/02/23 04:24:11;;;;;;;0.50;0.50;;;;;;;3.14;100.00;97120.22;5033219;28;20051;-59
2024/02/23 04:26:38;;;;;;;0.60;0.60;;;;;;;3.15;100.00;97121.81;5035698;28;20388;-59
2024/02/23 04:29:05;;;;;;;0.60;0.60;;;;;;;3.08;100.00;97129.16;5037760;28;20041;-58
2024/02/23 04:31:33;;;;;;;0.60;0.60;;;;;;;3.15;100.00;97123.69;5036031;28;20094;-59
2024/02/23 04:34:00;;;;;;;0.50;0.50;;;;;;;3.15;100.00;97127.13;5039356;28;20154;-59
2024/02/23 04:36:27;;;;;;;0.55;0.55;;;;;;;3.22;100.00;97143.63;5031546;28;20043;-59
2024/02/23 04:38:54;;;;;;;0.60;0.60;;;;;;;3.33;100.00;97135.81;5030958;28;20128;-59
2024/02/23 04:41:22;;;;;;;0.50;0.50;;;;;;;3.37;100.00;97143.00;5032342;28;20131;-58
2024/02/23 04:43:49;;;;;;;0.50;0.50;;;;;;;3.49;100.00;97136.78;5030361;28;20065;-58
2024/02/23 04:46:16;;;;;;;0.57;0.57;;;;;;;3.53;100.00;97141.34;5028467;28;20049;-58
2024/02/23 04:48:45;;;;;;;0.60;0.60;;;;;;;3.64;100.00;97140.41;5030489;28;20152;-60
2024/02/23 04:51:13;;;;;;;0.50;0.50;;;;;;;3.65;100.00;97139.34;5039198;28;20450;-60
2024/02/23 04:53:40;;;;;;;0.50;0.50;;;;;;;3.46;100.00;97141.50;5016504;28;20829;-59
2024/02/23 04:56:07;;;;;;;0.52;0.52;;;;;;;3.45;100.00;97133.84;5030349;28;20156;-57
2024/02/23 04:58:34;;;;;;;0.50;0.50;;;;;;;3.46;100.00;97141.50;5031462;28;20049;-58
2024/02/23 05:01:02;;;;;;;0.60;0.60;;;;;;;3.42;100.00;97139.59;5037086;28;20045;-57
2024/02/23 05:03:30;;;;;;;0.63;0.63;;;;;;;3.38;100.00;97143.81;5024884;28;20076;-57
2024/02/23 05:05:58;;;;;;;0.70;0.70;;;;;;;3.33;100.00;97138.47;5035357;28;20137;-58
2024/02/23 05:08:27;;;;;;;0.55;0.55;;;;;;;3.38;100.00;97143.81;5029667;28;20040;-57
2024/02/23 05:10:54;;;;;;;0.60;0.60;;;;;;;3.35;100.00;97139.00;5033148;28;20064;-57
2024/02/23 05:13:21;;;;;;;0.40;0.40;;;;;;;3.28;100.00;97138.41;5029904;28;20040;-58
2024/02/23 05:15:48;;;;;;;0.50;0.50;;;;;;;3.34;100.00;97135.53;5037672;28;20551;-58
2024/02/23 05:18:15;;;;;;;0.60;0.60;;;;;;;3.21;100.00;97138.56;5038077;28;20051;-58
2024/02/23 05:20:42;;;;;;;0.52;0.52;;;;;;;3.28;100.00;97130.44;5039492;28;20429;-58
2024/02/23 05:23:15;;;;;;;0.50;0.50;;;;;;;3.28;100.00;97122.50;5029240;28;20118;-58
2024/02/23 05:25:42;;;;;;;0.43;0.43;;;;;;;3.34;100.00;97126.81;5031192;28;20148;-58
2024/02/23 05:28:09;;;;;;;0.50;0.50;;;;;;;3.30;100.00;97133.66;5033629;28;20122;-58
2024/02/23 05:30:36;;;;;;;0.60;0.60;;;;;;;3.29;100.00;97139.97;5028793;28;20037;-58
2024/02/23 05:33:04;;;;;;;0.50;0.50;;;;;;;3.30;100.00;97125.72;5033817;28;20163;-58
2024/02/23 05:35:31;;;;;;;0.70;0.70;;;;;;;3.40;100.00;97125.84;5031626;28;20049;-58
2024/02/23 05:37:59;;;;;;;0.43;0.43;;;;;;;3.52;100.00;97117.72;5025667;28;20048;-58
2024/02/23 05:40:27;;;;;;;0.50;0.50;;;;;;;3.44;100.00;97129.56;5034012;28;20045;-58
2024/02/23 05:42:55;;;;;;;0.50;0.50;;;;;;;3.50;100.00;97125.94;5030584;28;20042;-58
2024/02/23 05:45:22;;;;;;;0.60;0.60;;;;;;;3.44;100.00;97116.31;5034626;28;20056;-57
2024/02/23 05:47:49;;;;;;;0.60;0.60;;;;;;;3.55;100.00;97107.47;5034061;28;20527;-58
2024/02/23 05:50:17;;;;;;;0.60;0.60;;;;;;;3.58;100.00;97112.25;5032956;28;20104;-58
2024/02/23 05:52:44;;;;;;;0.40;0.40;;;;;;;3.33;100.00;97114.63;5033935;28;20434;-60
2024/02/23 05:55:13;;;;;;;0.50;0.50;;;;;;;3.28;100.00;97104.78;5027134;28;20467;-58
2024/02/23 05:57:42;;;;;;;0.50;0.50;;;;;;;3.31;100.00;97109.56;5028260;28;20057;-58
2024/02/23 06:00:10;;;;;;;0.50;0.50;;;;;;;3.24;100.00;97093.06;5034509;28;20041;-58
2024/02/23 06:02:40;;;;;;;0.57;0.57;;;;;;;3.16;100.00;97096.16;5031452;28;20443;-58
2024/02/23 06:05:08;;;;;;;0.60;0.60;;;;;;;3.27;100.00;97105.84;5034750;28;20055;-58
2024/02/23 06:07:36;;;;;;;0.52;0.52;;;;;;;3.17;100.00;97110.97;5031994;28;20041;-58
2024/02/23 06:10:04;;;;;;;0.50;0.50;;;;;;;3.20;100.00;97107.84;5032711;28;20045;-58
2024/02/23 06:12:31;;;;;;;0.50;0.50;;;;;;;3.25;100.00;97118.50;5035398;28;20042;-58
2024/02/23 06:14:59;;;;;;;0.50;0.50;;;;;;;3.34;100.00;97116.22;5023082;28;20049;-59
2024/02/23 06:17:27;;;;;;;0.60;0.60;;;;;;;3.41;100.00;97114.19;5024048;28;20557;-58
2024/02/23 06:19:57;;;;;;;0.50;0.50;;;;;;;3.49;100.00;97113.72;5032056;28;20045;-59
2024/02/23 06:22:25;;;;;;;0.50;0.50;;;;;;;3.55;100.00;97114.59;5041463;28;20128;-59
2024/02/23 06:24:52;;;;;;;0.60;0.60;;;;;;;3.42;100.00;97107.81;5039112;28;20129;-59
2024/02/23 06:27:19;;;;;;;0.50;0.50;;;;;;;3.48;100.00;97104.19;5033608;28;20152;-59
2024/02/23 06:29:46;;;;;;;0.57;0.57;;;;;;;3.55;100.00;97101.38;5037637;28;20096;-60
2024/02/23 06:32:15;;;;;;;0.68;0.68;;;;;;;3.57;100.00;97109.84;5030876;28;20073;-58
2024/02/23 06:34:43;;;;;;;0.50;0.50;;;;;;;3.62;100.00;97113.38;5041960;28;20052;-60
2024/02/23 06:37:10;;;;;;;0.55;0.55;;;;;;;3.66;100.00;97109.16;5030483;28;21347;-58
2024/02/23 06:39:37;;;;;;;0.50;0.50;;;;;;;3.68;100.00;97111.56;5038834;28;20045;-58
2024/02/23 06:42:04;;;;;;;0.47;0.47;;;;;;;3.73;100.00;97118.75;5026690;28;20045;-58
2024/02/23 06:44:32;;;;;;;0.60;0.60;;;;;;;3.78;100.00;97106.34;5033161;28;20602;-58
2024/02/23 06:46:59;;;;;;;0.50;0.50;;;;;;;3.83;100.00;97108.25;5028943;28;20111;-59
2024/02/23 06:49:27;;;;;;;0.40;0.40;;;;;;;3.82;100.00;97112.78;5031542;28;20107;-58
2024/02/23 06:51:54;;;;;;;0.50;0.50;;;;;;;3.94;100.00;97123.19;5036099;28;20045;-59
2024/02/23 06:54:21;;;;;;;0.60;0.60;;;;;;;3.76;100.00;97118.25;5039927;28;20525;-60
2024/02/23 06:56:48;;;;;;;0.50;0.50;;;;;;;3.96;100.00;97123.75;5029729;28;20049;-59
2024/02/23 06:59:15;;;;;;;0.50;0.50;;;;;;;3.91;100.00;97126.34;5030755;28;20566;-60
2024/02/23 07:01:50;;;;;;;0.50;0.50;;;;;;;3.97;100.00;97130.66;5011675;28;20033;-59
2024/02/23 07:04:17;;;;;;;0.50;0.50;;;;;;;3.98;100.00;97142.06;5019472;28;20046;-57
2024/02/23 07:06:46;;;;;;;0.60;0.60;;;;;;;3.92;100.00;97141.22;5015532;28;20037;-58
2024/02/23 07:09:13;;;;;;;0.50;0.50;;;;;;;3.97;100.00;97145.75;5016927;28;20045;-58
2024/02/23 07:11:43;;;;;;;0.50;0.50;;;;;;;3.99;100.00;97149.75;5025557;28;20052;-58
2024/02/23 07:14:11;;;;;;;0.52;0.52;;;;;;;4.03;100.00;97150.06;5016066;28;20080;-58
2024/02/23 07:16:39;;;;;;;0.50;0.50;;;;;;;4.05;100.00;97154.06;5023020;28;20905;-58
2024/02/23 07:19:06;;;;;;;0.40;0.40;;;;;;;4.10;100.00;97169.22;5040274;28;20041;-58
2024/02/23 07:21:33;;;;;;;0.40;0.40;;;;;;;4.39;100.00;97168.94;5011521;28;20115;-59
2024/02/23 07:24:02;;;;;;;0.47;0.47;;;;;;;4.29;100.00;97169.63;5038793;28;20041;-59
2024/02/23 07:26:30;;;;;;;0.50;0.50;;;;;;;4.30;100.00;97173.91;5031941;28;20132;-58
2024/02/23 07:28:57;;;;;;;0.50;0.50;;;;;;;4.32;100.00;97185.06;5041471;28;20507;-59
2024/02/23 07:31:24;;;;;;;0.47;0.47;;;;;;;4.30;100.00;97181.88;5028137;28;20040;-59
2024/02/23 07:33:52;;;;;;;0.60;0.60;;;;;;;4.36;100.00;97183.50;5038122;28;20041;-59
2024/02/23 07:36:19;;;;;;;0.40;0.40;;;;;;;4.50;100.00;97179.38;5029442;28;20784;-57
2024/02/23 07:38:46;;;;;;;0.57;0.57;;;;;;;4.36;100.00;97183.50;5037510;28;20054;-58
2024/02/23 07:41:17;;;;;;;0.50;0.50;;;;;;;4.42;100.00;97185.16;5030625;28;20083;-59
2024/02/23 07:43:44;;;;;;;0.43;0.43;;;;;;;4.48;100.00;97183.34;5025874;28;20119;-60
2024/02/23 07:46:11;;;;;;;0.50;0.50;;;;;;;4.52;100.00;97198.50;5028827;28;20041;-59
2024/02/23 07:48:39;;;;;;;0.50;0.50;;;;;;;4.36;100.00;97178.19;5027789;28;20149;-59
2024/02/23 07:51:06;;;;;;;0.50;0.50;;;;;;;4.62;100.00;97183.69;5037540;28;20099;-59
2024/02/23 07:53:33;;;;;;;0.50;0.50;;;;;;;4.57;100.00;97178.34;5036173;28;20103;-59
2024/02/23 07:56:02;;;;;;;0.55;0.55;;;;;;;4.79;99.79;97197.63;5039553;28;20047;-60
2024/02/23 07:58:30;;;;;;;0.35;0.35;;;;;;;4.81;98.95;97187.56;5015081;28;20041;-60
2024/02/23 08:00:57;;;;;;;0.52;0.52;;;;;;;4.54;98.35;97193.75;5033721;28;20148;-59
2024/02/23 08:03:26;;;;;;;0.50;0.50;;;;;;;4.76;99.91;97206.91;5028712;28;20041;-59
2024/02/23 08:05:53;;;;;;;0.50;0.50;;;;;;;4.80;100.00;97209.88;5028910;28;20069;-59
2024/02/23 08:08:22;;;;;;;0.40;0.40;;;;;;;4.61;97.76;97206.00;5037470;28;20045;-59
2024/02/23 08:10:49;;;;;;;0.52;0.52;;;;;;;4.77;99.21;97218.34;5037321;28;20041;-59
2024/02/23 08:13:17;;;;;;;0.45;0.45;;;;;;;4.88;98.54;97214.69;5037184;28;21334;-59
2024/02/23 08:15:46;;;;;;;0.50;0.50;;;;;;;4.86;97.28;97224.75;5031329;28;20863;-58
2024/02/23 08:18:13;;;;;;;0.50;0.50;;;;;;;4.80;98.25;97222.34;5026419;28;20819;-59
2024/02/23 08:20:40;;;;;;;0.50;0.50;;;;;;;4.94;97.93;97229.63;5027968;28;20073;-60
2024/02/23 08:23:08;;;;;;;0.47;0.47;;;;;;;4.96;99.16;97227.47;5033933;28;20052;-58
2024/02/23 08:25:36;;;;;;;0.50;0.50;;;;;;;4.88;96.65;97230.63;5033400;28;20057;-59
2024/02/23 08:28:05;;;;;;;0.40;0.40;;;;;;;4.74;98.02;97224.13;5039653;28;20049;-60
2024/02/23 08:30:33;;;;;;;0.40;0.40;;;;;;;4.62;96.91;97228.81;5035413;28;20037;-59
2024/02/23 08:33:01;;;;;;;0.35;0.35;;;;;;;4.74;96.12;97224.13;5023359;28;20265;-60
2024/02/23 08:35:30;;;;;;;0.50;0.50;;;;;;;4.57;96.74;97234.06;5036280;28;20041;-61
2024/02/23 08:37:58;;;;;;;0.60;0.60;;;;;;;4.85;97.06;97236.44;5032923;28;20072;-59
2024/02/23 08:40:25;;;;;;;0.57;0.57;;;;;;;4.61;96.79;97235.97;5028075;28;20060;-59
2024/02/23 08:42:52;;;;;;;0.50;0.50;;;;;;;4.56;97.24;97238.59;5034770;28;20509;-59
2024/02/23 08:45:20;;;;;;;0.50;0.50;;;;;;;4.78;96.98;97241.16;5037587;28;20796;-58
2024/02/23 08:47:47;;;;;;;0.40;0.40;;;;;;;4.92;99.24;97242.34;5032079;28;20694;-58
2024/02/23 08:50:15;;;;;;;0.45;0.45;;;;;;;4.90;98.62;97233.03;5016505;28;20045;-58
2024/02/23 08:52:42;;;;;;;0.50;0.50;;;;;;;5.09;98.55;97236.06;5030353;28;20079;-59
2024/02/23 08:55:11;;;;;;;0.40;0.40;;;;;;;5.08;97.46;97239.78;5028933;28;20084;-58
2024/02/23 08:57:38;;;;;;;0.60;0.60;;;;;;;5.70;94.86;97255.03;5025100;28;20103;-58
2024/02/23 09:00:06;;;;;;;0.50;0.50;;;;;;;5.69;95.29;97258.75;5033871;28;20064;-59
2024/02/23 09:02:35;;;;;;;0.40;0.40;;;;;;;5.61;94.92;97254.69;5033303;28;20071;-58
2024/02/23 09:05:02;;;;;;;0.40;0.40;;;;;;;5.22;95.13;97256.06;5026260;28;20047;-58
2024/02/23 09:07:31;;;;;;;0.50;0.50;;;;;;;5.47;95.47;97258.91;5031155;28;20045;-60
2024/02/23 09:10:01;;;;;;;0.50;0.50;;;;;;;5.49;95.08;97246.16;5034131;28;20056;-59
2024/02/23 09:12:28;;;;;;;0.43;0.43;;;;;;;5.44;93.61;97240.00;5031344;28;20053;-59
2024/02/23 09:14:55;;;;;;;0.50;0.50;;;;;;;5.80;94.92;97233.00;5027534;28;20560;-59
2024/02/23 09:17:23;;;;;;;0.35;0.35;;;;;;;5.26;93.58;97247.34;5032017;28;20900;-60
2024/02/23 09:19:50;;;;;;;0.43;0.43;;;;;;;5.11;94.31;97244.59;5033221;28;20073;-59
2024/02/23 09:22:17;;;;;;;0.50;0.50;;;;;;;5.15;95.04;97237.72;5034286;28;20744;-59
2024/02/23 09:24:46;;;;;;;0.40;0.40;;;;;;;5.36;95.50;97234.09;5031389;28;20045;-59
2024/02/23 09:27:13;;;;;;;0.40;0.40;;;;;;;5.41;95.89;97241.31;5032743;28;20132;-59
2024/02/23 09:29:41;;;;;;;0.35;0.35;;;;;;;5.42;96.61;97240.28;5028167;28;20052;-59
2024/02/23 09:32:08;;;;;;;0.43;0.43;;;;;;;5.35;97.13;97237.84;5037610;28;20045;-59
2024/02/23 09:34:36;;;;;;;0.50;0.50;;;;;;;5.47;95.26;97237.63;5027107;28;20056;-59
2024/02/23 09:37:03;;;;;;;0.43;0.43;;;;;;;5.67;94.16;97246.78;5035546;28;20715;-58
2024/02/23 09:39:31;;;;;;;0.47;0.47;;;;;;;5.54;93.29;97242.72;5018163;28;20042;-58
2024/02/23 09:41:59;;;;;;;0.50;0.50;;;;;;;5.60;93.27;97242.47;5025749;28;20146;-58
2024/02/23 09:44:27;;;;;;;0.40;0.40;;;;;;;5.76;92.47;97245.19;5026880;28;20144;-58
2024/02/23 09:46:55;;;;;;;0.30;0.30;;;;;;;5.72;93.23;97244.94;5025715;28;20068;-58
2024/02/23 09:49:22;;;;;;;0.40;0.40;;;;;;;5.59;93.00;97246.22;5026768;28;20064;-60
2024/02/23 09:51:50;;;;;;;0.40;0.40;;;;;;;5.82;93.40;97237.00;5030279;28;20518;-58
2024/02/23 09:54:17;;;;;;;0.30;0.30;;;;;;;5.86;92.65;97237.25;5027759;28;20048;-57
2024/02/23 09:56:44;;;;;;;0.47;0.47;;;;;;;5.71;92.06;97232.69;5036338;28;20045;-59
2024/02/23 09:59:13;;;;;;;0.40;0.40;;;;;;;5.94;90.91;97236.81;5031572;28;20056;-58
2024/02/23 10:01:40;;;;;;;0.40;0.40;;;;;;;6.07;90.71;97240.03;5040159;28;20053;-58
2024/02/23 10:04:07;;;;;;;0.40;0.40;;;;;;;6.26;91.98;97243.78;5038525;28;20069;-59
2024/02/23 10:06:34;;;;;;;0.40;0.40;;;;;;;6.35;89.14;97225.47;5032138;28;20052;-58
2024/02/23 10:09:04;;;;;;;0.40;0.40;;;;;;;6.66;88.21;97240.41;5028532;28;20530;-58
2024/02/23 10:11:31;;;;;;;0.50;0.50;;;;;;;6.80;87.04;97234.56;5036315;28;20128;-58
2024/02/23 10:13:58;;;;;;;0.40;0.40;;;;;;;6.58;88.01;97235.59;5030692;28;20055;-58
2024/02/23 10:16:26;;;;;;;0.40;0.40;;;;;;;6.64;87.04;97233.72;5029300;28;20045;-58
2024/02/23 10:18:53;;;;;;;0.40;0.40;;;;;;;6.34;87.90;97229.19;5025664;28;20076;-58
2024/02/23 10:21:20;;;;;;;0.38;0.38;;;;;;;6.74;86.49;97232.94;5035276;28;20542;-59
2024/02/23 10:23:47;;;;;;;0.40;0.40;;;;;;;6.67;85.42;97238.56;5035161;28;20225;-59
2024/02/23 10:26:18;;;;;;;0.40;0.40;;;;;;;7.12;84.66;97240.41;5036674;28;20133;-58
2024/02/23 10:28:46;;;;;;;0.40;0.40;;;;;;;6.73;86.02;97250.00;5030965;28;20402;-59
2024/02/23 10:31:13;;;;;;;0.40;0.40;;;;;;;6.70;86.81;97265.44;5038528;28;20063;-59
2024/02/23 10:33:41;;;;;;;0.43;0.43;;;;;;;6.89;86.14;97256.94;5042395;28;20160;-59
2024/02/23 10:36:09;;;;;;;0.50;0.50;;;;;;;7.03;84.81;97251.84;5041763;28;20076;-59
2024/02/23 10:38:36;;;;;;;0.50;0.50;;;;;;;6.75;86.02;97253.19;5039475;28;20136;-59
2024/02/23 10:41:04;;;;;;;0.50;0.50;;;;;;;6.78;87.87;97261.44;5031108;28;20056;-59
2024/02/23 10:43:34;;;;;;;0.40;0.40;;;;;;;6.88;85.62;97260.66;5039341;28;20106;-59
2024/02/23 10:46:02;;;;;;;0.40;0.40;;;;;;;6.82;86.55;97257.19;5039475;28;20049;-58
2024/02/23 10:48:29;;;;;;;0.50;0.50;;;;;;;7.61;84.74;97254.16;5050893;28;20059;-59
2024/02/23 10:50:58;;;;;;;0.40;0.40;;;;;;;8.09;80.43;97246.50;5027030;28;20171;-58
2024/02/23 10:53:25;;;;;;;0.40;0.40;;;;;;;8.75;77.09;97242.66;5028410;28;20045;-59
2024/02/23 10:55:54;;;;;;;0.40;0.40;;;;;;;7.69;78.78;97254.41;5031712;28;20156;-59
2024/02/23 10:58:21;;;;;;;0.40;0.40;;;;;;;7.68;78.42;97254.66;5027632;28;20124;-59
2024/02/23 11:00:48;;;;;;;0.40;0.40;;;;;;;7.43;81.15;97253.66;5038740;28;20054;-58
2024/02/23 11:03:15;;;;;;;0.30;0.30;;;;;;;7.16;83.33;97255.84;5033942;28;20496;-58
2024/02/23 11:05:42;;;;;;;0.30;0.30;;;;;;;6.97;82.30;97256.41;5025043;28;20109;-59
2024/02/23 11:08:11;;;;;;;0.40;0.40;;;;;;;6.78;83.23;97255.31;5025548;28;20045;-58
2024/02/23 11:10:44;;;;;;;0.50;0.50;;;;;;;6.71;85.65;97244.91;5033915;28;20107;-58
2024/02/23 11:13:11;;;;;;;0.43;0.43;;;;;;;7.23;83.45;97235.03;5035339;28;20045;-58
2024/02/23 11:15:42;;;;;;;0.50;0.50;;;;;;;7.63;80.50;97236.81;5032875;28;20049;-60
2024/02/23 11:18:22;;;;;;;0.40;0.40;;;;;;;7.91;81.11;97246.06;5035816;28;20110;-59
2024/02/23 11:20:54;;;;;;;0.43;0.43;;;;;;;7.25;81.23;97232.91;5034611;28;20076;-58
2024/02/23 11:23:23;;;;;;;0.40;0.40;;;;;;;7.48;81.90;97242.19;5039093;28;20526;-58
2024/02/23 11:26:08;;;;;;;0.40;0.40;;;;;;;7.86;80.24;97238.09;5035782;28;20124;-58
2024/02/23 11:28:43;;;;;;;0.30;0.30;;;;;;;7.78;80.87;97235.97;5026383;28;20424;-58
2024/02/23 11:31:14;;;;;;;0.30;0.30;;;;;;;7.84;81.25;97237.56;5029197;28;20724;-58
2024/02/23 11:33:41;;;;;;;0.32;0.32;;;;;;;7.12;83.02;97229.75;5026969;28;20069;-58
2024/02/23 11:36:10;;;;;;;0.40;0.40;;;;;;;7.29;84.41;97245.44;5033617;28;20076;-58
2024/02/23 11:38:38;;;;;;;0.30;0.30;;;;;;;7.57;86.94;97256.56;5034087;28;20100;-60